sensor_id;sensor_type;location;lat;lon;timestamp;pressure;altitude;pressure_sealevel;temperature;humidity
39699;BME280;25372;50.582;12.250;2023-02-02T00:05:11;99493.41;;;1.72;100.00
39699;BME280;25372;50.582;12.250;2023-02-02T00:15:32;99485.28;;;1.66;100.00
39699;BME280;25372;50.582;12.250;2023-02-02T00:25:54;99469.47;;;1.67;100.00
39699;BME280;25372;50.582;12.250;2023-02-02T00:36:16;99455.88;;;1.83;100.00
39699;BME280;25372;50.582;12.250;2023-02-02T00:46:39;99455.88;;;1.83;100.00
39699;BME280;25372;50.582;12.250;2023-02-02T00:57:01;99449.38;;;1.48;100.00
39699;BME280;25372;50.582;12.250;2023-02-02T01:07:23;99466.03;;;1.67;100.00
39699;BME280;25372;50.582;12.250;2023-02-02T01:17:44;99459.00;;;1.67;100.00
39699;BME280;25372;50.582;12.250;2023-02-02T01:28:07;99477.91;;;1.81;100.00
39699;BME280;25372;50.582;12.250;2023-02-02T01:38:28;99464.53;;;2.03;99.69
39699;BME280;25372;50.582;12.250;2023-02-02T01:48:52;99452.72;;;2.19;98.78
39699;BME280;25372;50.582;12.250;2023-02-02T01:59:14;99458.63;;;1.82;100.00
39699;BME280;25372;50.582;12.250;2023-02-02T02:09:38;99460.72;;;1.88;99.97
39699;BME280;25372;50.582;12.250;2023-02-02T02:20:42;99460.13;;;2.04;98.70
39699;BME280;25372;50.582;12.250;2023-02-02T02:42:12;99464.56;;;2.23;95.79
39699;BME280;25372;50.582;12.250;2023-02-02T02:52:36;99472.50;;;2.41;94.41
39699;BME280;25372;50.582;12.250;2023-02-02T03:03:06;99466.19;;;2.43;93.80
39699;BME280;25372;50.582;12.250;2023-02-02T03:13:30;99464.50;;;2.42;94.56
39699;BME280;25372;50.582;12.250;2023-02-02T03:23:52;99480.19;;;2.52;93.25
39699;BME280;25372;50.582;12.250;2023-02-02T03:34:13;99494.38;;;2.59;91.47
39699;BME280;25372;50.582;12.250;2023-02-02T03:44:35;99472.22;;;2.54;91.27
39699;BME280;25372;50.582;12.250;2023-02-02T03:54:56;99505.66;;;2.70;90.64
39699;BME280;25372;50.582;12.250;2023-02-02T04:05:18;99499.31;;;2.72;89.00
39699;BME280;25372;50.582;12.250;2023-02-02T04:15:39;99509.22;;;2.69;88.82
39699;BME280;25372;50.582;12.250;2023-02-02T04:26:02;99522.59;;;2.66;89.78
39699;BME280;25372;50.582;12.250;2023-02-02T04:36:23;99523.41;;;2.66;89.52
39699;BME280;25372;50.582;12.250;2023-02-02T04:46:45;99546.13;;;2.66;92.53
39699;BME280;25372;50.582;12.250;2023-02-02T04:57:05;99542.97;;;2.62;90.32
39699;BME280;25372;50.582;12.250;2023-02-02T05:07:28;99554.94;;;2.65;89.46
39699;BME280;25372;50.582;12.250;2023-02-02T05:17:49;99556.31;;;2.78;87.88
39699;BME280;25372;50.582;12.250;2023-02-02T05:28:11;99586.47;;;2.63;90.61
39699;BME280;25372;50.582;12.250;2023-02-02T05:38:32;99586.63;;;2.71;88.69
39699;BME280;25372;50.582;12.250;2023-02-02T05:48:54;99601.47;;;2.71;89.25
39699;BME280;25372;50.582;12.250;2023-02-02T05:59:17;99612.91;;;2.79;88.61
39699;BME280;25372;50.582;12.250;2023-02-02T06:09:39;99615.53;;;2.89;86.27
39699;BME280;25372;50.582;12.250;2023-02-02T06:20:00;99624.09;;;2.82;89.86
39699;BME280;25372;50.582;12.250;2023-02-02T06:30:23;99665.13;;;2.81;88.97
39699;BME280;25372;50.582;12.250;2023-02-02T06:40:43;99664.72;;;2.86;88.24
39699;BME280;25372;50.582;12.250;2023-02-02T06:51:06;99682.34;;;2.84;88.35
39699;BME280;25372;50.582;12.250;2023-02-02T07:01:27;99682.22;;;2.75;90.25
39699;BME280;25372;50.582;12.250;2023-02-02T07:11:49;99695.97;;;2.77;90.84
39699;BME280;25372;50.582;12.250;2023-02-02T07:22:10;99706.31;;;2.89;90.87
39699;BME280;25372;50.582;12.250;2023-02-02T07:32:32;99702.63;;;2.91;90.23
39699;BME280;25372;50.582;12.250;2023-02-02T07:42:53;99724.38;;;3.02;91.05
39699;BME280;25372;50.582;12.250;2023-02-02T07:53:15;99735.97;;;3.09;89.88
39699;BME280;25372;50.582;12.250;2023-02-02T08:03:36;99765.16;;;3.14;89.60
39699;BME280;25372;50.582;12.250;2023-02-02T08:14:00;99769.44;;;3.15;89.62
39699;BME280;25372;50.582;12.250;2023-02-02T08:24:21;99779.38;;;3.21;89.38
39699;BME280;25372;50.582;12.250;2023-02-02T08:34:43;99796.88;;;3.21;89.01
39699;BME280;25372;50.582;12.250;2023-02-02T08:45:06;99804.63;;;3.32;88.30
39699;BME280;25372;50.582;12.250;2023-02-02T08:55:27;99821.28;;;3.31;88.73
39699;BME280;25372;50.582;12.250;2023-02-02T09:05:48;99839.03;;;3.08;93.66
39699;BME280;25372;50.582;12.250;2023-02-02T09:16:12;99857.09;;;3.11;93.24
39699;BME280;25372;50.582;12.250;2023-02-02T09:26:34;99856.41;;;3.19;92.84
39699;BME280;25372;50.582;12.250;2023-02-02T09:36:56;99853.94;;;3.17;94.34
39699;BME280;25372;50.582;12.250;2023-02-02T09:47:19;99866.06;;;3.18;93.31
39699;BME280;25372;50.582;12.250;2023-02-02T09:57:46;99882.91;;;3.25;94.57
39699;BME280;25372;50.582;12.250;2023-02-02T10:08:10;99898.06;;;3.31;95.38
39699;BME280;25372;50.582;12.250;2023-02-02T10:18:41;99900.13;;;3.18;98.11
39699;BME280;25372;50.582;12.250;2023-02-02T10:29:10;99910.69;;;3.07;100.00
39699;BME280;25372;50.582;12.250;2023-02-02T10:39:44;99917.81;;;2.95;100.00
39699;BME280;25372;50.582;12.250;2023-02-02T10:50:15;99920.13;;;3.19;100.00
39699;BME280;25372;50.582;12.250;2023-02-02T11:00:40;99911.75;;;3.55;100.00
39699;BME280;25372;50.582;12.250;2023-02-02T11:11:15;99923.34;;;3.62;100.00
39699;BME280;25372;50.582;12.250;2023-02-02T11:21:39;99929.56;;;3.71;100.00
39699;BME280;25372;50.582;12.250;2023-02-02T11:32:18;99947.50;;;3.75;100.00
39699;BME280;25372;50.582;12.250;2023-02-02T11:42:43;99964.84;;;3.57;100.00
39699;BME280;25372;50.582;12.250;2023-02-02T11:53:19;99955.66;;;4.01;100.00
39699;BME280;25372;50.582;12.250;2023-02-02T12:03:47;99971.09;;;3.56;100.00
39699;BME280;25372;50.582;12.250;2023-02-02T12:14:23;99979.03;;;3.44;100.00
39699;BME280;25372;50.582;12.250;2023-02-02T12:24:53;99974.69;;;3.64;100.00
39699;BME280;25372;50.582;12.250;2023-02-02T12:35:27;99965.72;;;3.77;100.00
39699;BME280;25372;50.582;12.250;2023-02-02T12:46:04;99979.41;;;4.00;100.00
39699;BME280;25372;50.582;12.250;2023-02-02T12:56:33;99987.59;;;3.46;100.00
39699;BME280;25372;50.582;12.250;2023-02-02T13:17:58;100013.66;;;4.08;100.00
39699;BME280;25372;50.582;12.250;2023-02-02T13:28:29;100005.22;;;3.95;100.00
39699;BME280;25372;50.582;12.250;2023-02-02T13:38:54;100031.25;;;3.77;96.25
39699;BME280;25372;50.582;12.250;2023-02-02T13:49:18;100062.63;;;3.47;100.00
39699;BME280;25372;50.582;12.250;2023-02-02T13:59:51;100072.03;;;3.50;100.00
39699;BME280;25372;50.582;12.250;2023-02-02T14:10:21;100079.13;;;3.69;100.00
39699;BME280;25372;50.582;12.250;2023-02-02T14:20:45;100080.47;;;3.63;100.00
39699;BME280;25372;50.582;12.250;2023-02-02T14:42:09;100125.97;;;3.53;100.00
39699;BME280;25372;50.582;12.250;2023-02-02T14:52:57;100136.91;;;3.37;100.00
39699;BME280;25372;50.582;12.250;2023-02-02T15:03:45;100152.38;;;3.19;100.00
39699;BME280;25372;50.582;12.250;2023-02-02T15:14:14;100180.88;;;3.12;100.00
39699;BME280;25372;50.582;12.250;2023-02-02T15:24:37;100186.69;;;2.94;100.00
39699;BME280;25372;50.582;12.250;2023-02-02T15:35:01;100229.09;;;3.09;100.00
39699;BME280;25372;50.582;12.250;2023-02-02T15:45:32;100238.81;;;2.86;100.00
39699;BME280;25372;50.582;12.250;2023-02-02T15:55:56;100268.22;;;2.90;100.00
39699;BME280;25372;50.582;12.250;2023-02-02T16:06:19;100300.56;;;3.00;100.00
39699;BME280;25372;50.582;12.250;2023-02-02T16:16:40;100328.91;;;2.84;100.00
39699;BME280;25372;50.582;12.250;2023-02-02T16:27:06;100361.03;;;2.74;100.00
39699;BME280;25372;50.582;12.250;2023-02-02T16:37:30;100404.31;;;2.44;100.00
39699;BME280;25372;50.582;12.250;2023-02-02T16:47:54;100427.09;;;2.08;100.00
39699;BME280;25372;50.582;12.250;2023-02-02T16:58:21;100435.44;;;1.65;100.00
39699;BME280;25372;50.582;12.250;2023-02-02T17:08:44;100461.44;;;1.43;100.00
39699;BME280;25372;50.582;12.250;2023-02-02T17:19:06;100476.22;;;1.18;100.00
39699;BME280;25372;50.582;12.250;2023-02-02T17:29:28;100497.78;;;1.83;100.00
39699;BME280;25372;50.582;12.250;2023-02-02T17:39:48;100511.06;;;2.04;100.00
39699;BME280;25372;50.582;12.250;2023-02-02T17:50:11;100503.41;;;1.89;100.00
39699;BME280;25372;50.582;12.250;2023-02-02T18:00:33;100556.94;;;1.34;100.00
39699;BME280;25372;50.582;12.250;2023-02-02T18:10:55;100557.16;;;1.31;100.00
39699;BME280;25372;50.582;12.250;2023-02-02T18:21:16;100567.78;;;1.66;100.00
39699;BME280;25372;50.582;12.250;2023-02-02T18:31:39;100572.22;;;1.90;100.00
39699;BME280;25372;50.582;12.250;2023-02-02T18:41:59;100578.25;;;1.90;100.00
39699;BME280;25372;50.582;12.250;2023-02-02T18:52:22;100568.41;;;1.57;100.00
39699;BME280;25372;50.582;12.250;2023-02-02T19:02:43;100586.22;;;1.39;100.00
39699;BME280;25372;50.582;12.250;2023-02-02T19:13:13;100580.88;;;1.28;100.00
39699;BME280;25372;50.582;12.250;2023-02-02T19:23:36;100593.31;;;1.11;100.00
39699;BME280;25372;50.582;12.250;2023-02-02T19:33:58;100599.25;;;1.00;100.00
39699;BME280;25372;50.582;12.250;2023-02-02T19:44:22;100600.31;;;1.24;100.00
39699;BME280;25372;50.582;12.250;2023-02-02T19:54:45;100606.16;;;1.27;100.00
39699;BME280;25372;50.582;12.250;2023-02-02T20:05:18;100614.22;;;1.24;100.00
39699;BME280;25372;50.582;12.250;2023-02-02T20:15:41;100612.00;;;1.31;100.00
39699;BME280;25372;50.582;12.250;2023-02-02T20:26:10;100607.75;;;1.30;100.00
39699;BME280;25372;50.582;12.250;2023-02-02T20:36:36;100610.97;;;1.20;100.00
39699;BME280;25372;50.582;12.250;2023-02-02T20:46:59;100615.69;;;1.28;100.00
39699;BME280;25372;50.582;12.250;2023-02-02T20:57:22;100617.88;;;1.34;100.00
39699;BME280;25372;50.582;12.250;2023-02-02T21:07:42;100620.38;;;1.36;100.00
39699;BME280;25372;50.582;12.250;2023-02-02T21:18:04;100602.69;;;1.39;100.00
39699;BME280;25372;50.582;12.250;2023-02-02T21:28:25;100598.72;;;1.34;100.00
39699;BME280;25372;50.582;12.250;2023-02-02T21:38:47;100608.69;;;1.29;100.00
39699;BME280;25372;50.582;12.250;2023-02-02T21:49:23;100598.34;;;1.27;100.00
39699;BME280;25372;50.582;12.250;2023-02-02T21:59:48;100586.97;;;1.28;100.00
39699;BME280;25372;50.582;12.250;2023-02-02T22:10:23;100592.38;;;1.25;100.00
39699;BME280;25372;50.582;12.250;2023-02-02T22:20:49;100593.09;;;1.14;100.00
39699;BME280;25372;50.582;12.250;2023-02-02T22:31:10;100590.78;;;0.84;100.00
39699;BME280;25372;50.582;12.250;2023-02-02T22:41:32;100598.09;;;0.92;100.00
39699;BME280;25372;50.582;12.250;2023-02-02T22:51:53;100591.53;;;1.12;100.00
39699;BME280;25372;50.582;12.250;2023-02-02T23:02:15;100571.38;;;1.27;100.00
39699;BME280;25372;50.582;12.250;2023-02-02T23:12:36;100568.16;;;1.23;100.00
39699;BME280;25372;50.582;12.250;2023-02-02T23:22:58;100551.66;;;1.23;100.00
39699;BME280;25372;50.582;12.250;2023-02-02T23:33:19;100570.66;;;1.25;100.00
39699;BME280;25372;50.582;12.250;2023-02-02T23:43:41;100567.28;;;1.35;100.00
39699;BME280;25372;50.582;12.250;2023-02-02T23:54:02;100549.31;;;1.44;100.00
